createdAt,value
2024-04-11T00:01:11.601Z,12.57
2024-04-11T00:02:51.387Z,12.56
2024-04-11T00:04:31.137Z,12.56
2024-04-11T00:06:10.920Z,12.54
2024-04-11T00:07:50.696Z,12.52
2024-04-11T00:09:30.452Z,12.5
2024-04-11T00:12:50.014Z,12.47
2024-04-11T00:14:29.768Z,12.44
2024-04-11T00:16:09.517Z,12.44
2024-04-11T00:17:49.302Z,12.41
2024-04-11T00:19:29.059Z,12.4
2024-04-11T00:21:08.834Z,12.38
2024-04-11T00:22:48.596Z,12.37
2024-04-11T00:24:28.366Z,12.35
2024-04-11T00:26:08.136Z,12.31
2024-04-11T00:27:47.891Z,12.31
2024-04-11T00:29:27.675Z,12.28
2024-04-11T00:31:07.428Z,12.28
2024-04-11T00:32:47.190Z,12.25
2024-04-11T00:34:26.991Z,12.23
2024-04-11T00:36:06.729Z,12.21
2024-04-11T00:37:46.507Z,12.2
2024-04-11T00:39:26.270Z,12.18
2024-04-11T00:41:06.027Z,12.16
2024-04-11T00:42:45.794Z,12.15
2024-04-11T00:44:25.569Z,12.13
2024-04-11T00:46:05.342Z,12.13
2024-04-11T00:49:24.867Z,12.07
2024-04-11T00:51:04.637Z,12.08
2024-04-11T00:52:44.397Z,12.05
2024-04-11T00:54:24.199Z,12.03
2024-04-11T00:56:03.937Z,12.03
2024-04-11T00:57:43.779Z,12.02
2024-04-11T00:59:23.580Z,11.99
2024-04-11T01:01:03.242Z,11.97
2024-04-11T01:02:43.010Z,11.97
2024-04-11T01:04:22.760Z,11.95
2024-04-11T01:06:02.561Z,11.94
2024-04-11T01:07:42.299Z,11.91
2024-04-11T01:09:22.080Z,11.92
2024-04-11T01:11:01.849Z,11.89
2024-04-11T01:12:41.622Z,11.88
2024-04-11T01:14:21.382Z,11.85
2024-04-11T01:16:01.140Z,11.83
2024-04-11T01:17:40.918Z,11.83
2024-04-11T01:19:20.675Z,11.8
2024-04-11T01:21:00.536Z,11.79
2024-04-11T01:22:40.227Z,11.78
2024-04-11T01:24:19.997Z,11.75
2024-04-11T01:25:59.757Z,11.74
2024-04-11T01:27:39.544Z,11.73
2024-04-11T01:29:19.294Z,11.74
2024-04-11T01:32:38.824Z,11.69
2024-04-11T01:34:18.594Z,11.68
2024-04-11T01:35:58.366Z,11.66
2024-04-11T01:37:38.137Z,11.65
2024-04-11T01:39:17.876Z,11.63
2024-04-11T01:40:57.662Z,11.62
2024-04-11T01:42:37.429Z,11.59
2024-04-11T01:44:17.190Z,11.59
2024-04-11T01:45:56.980Z,11.56
2024-04-11T01:47:36.742Z,11.56
2024-04-11T01:49:16.500Z,11.54
2024-04-11T01:50:56.243Z,11.51
2024-04-11T01:52:36.048Z,11.51
2024-04-11T01:55:55.567Z,11.47
2024-04-11T01:57:35.340Z,11.45
2024-04-11T01:59:15.108Z,11.43
2024-04-11T02:02:34.651Z,11.42
2024-04-11T02:04:14.390Z,11.39
2024-04-11T02:05:54.176Z,11.39
2024-04-11T02:07:33.939Z,11.35
2024-04-11T02:09:13.708Z,11.35
2024-04-11T02:10:53.533Z,11.34
2024-04-11T02:12:33.217Z,11.31
2024-04-11T02:14:13.013Z,11.31
2024-04-11T02:15:52.807Z,11.3
2024-04-11T02:19:12.319Z,11.27
2024-04-11T02:22:31.849Z,11.24
2024-04-11T02:24:11.616Z,11.21
2024-04-11T02:25:51.372Z,11.21
2024-04-11T02:27:31.155Z,11.2
2024-04-11T02:29:10.917Z,11.18
2024-04-11T02:30:50.711Z,11.16
2024-04-11T02:32:30.438Z,11.16
2024-04-11T02:34:10.216Z,11.15
2024-04-11T02:35:49.997Z,11.13
2024-04-11T02:37:29.758Z,11.1
2024-04-11T02:39:09.505Z,11.09
2024-04-11T02:40:49.290Z,11.1
2024-04-11T02:42:29.051Z,11.08
2024-04-11T02:44:08.823Z,11.07
2024-04-11T02:45:48.779Z,11.06
2024-04-11T02:47:28.402Z,11.04
2024-04-11T02:49:08.137Z,11.04
2024-04-11T02:52:27.649Z,11
2024-04-11T02:54:07.420Z,11
2024-04-11T02:55:47.190Z,10.99
2024-04-11T02:57:27.021Z,10.97
2024-04-11T02:59:06.721Z,10.96
2024-04-11T03:00:46.516Z,10.95
2024-04-11T03:02:26.267Z,10.94
2024-04-11T03:04:06.022Z,10.9
2024-04-11T03:05:45.802Z,10.92
2024-04-11T03:07:25.615Z,10.91
2024-04-11T03:09:05.339Z,10.89
2024-04-11T03:12:24.877Z,10.87
2024-04-11T03:14:04.628Z,10.86
2024-04-11T03:15:44.406Z,10.84
2024-04-11T03:17:24.199Z,10.83
2024-04-11T03:19:03.944Z,10.81
2024-04-11T03:20:43.703Z,10.79
2024-04-11T03:22:23.480Z,10.8
2024-04-11T03:24:03.230Z,10.78
2024-04-11T03:25:42.998Z,10.76
2024-04-11T03:27:22.764Z,10.75
2024-04-11T03:29:02.534Z,10.75
2024-04-11T03:30:42.304Z,10.74
2024-04-11T03:32:22.078Z,10.72
2024-04-11T03:34:01.917Z,10.71
2024-04-11T03:35:41.658Z,10.7
2024-04-11T03:37:21.373Z,10.68
2024-04-11T03:39:01.140Z,10.66
2024-04-11T03:40:40.928Z,10.65
2024-04-11T03:42:20.704Z,10.64
2024-04-11T03:44:00.470Z,10.64
2024-04-11T03:45:40.225Z,10.64
2024-04-11T03:47:19.999Z,10.62
2024-04-11T03:48:59.844Z,10.6
2024-04-11T03:50:39.526Z,10.59
2024-04-11T03:52:19.285Z,10.59
2024-04-11T03:53:59.194Z,10.59
2024-04-11T03:55:38.814Z,10.57
2024-04-11T03:58:58.356Z,10.57
2024-04-11T04:00:38.147Z,10.57
2024-04-11T04:02:18.074Z,10.57
2024-04-11T04:03:57.747Z,10.57
2024-04-11T04:05:37.487Z,10.57
2024-04-11T04:07:17.257Z,10.57
2024-04-11T04:08:56.956Z,10.6
2024-04-11T04:10:36.730Z,10.6
2024-04-11T04:12:16.518Z,10.63
2024-04-11T04:13:56.265Z,10.61
2024-04-11T04:15:36.038Z,10.62
2024-04-11T04:17:15.791Z,10.63
2024-04-11T04:18:55.554Z,10.63
2024-04-11T04:20:35.365Z,10.63
2024-04-11T04:22:15.203Z,10.65
2024-04-11T04:23:54.880Z,10.65
2024-04-11T04:25:34.826Z,10.63
2024-04-11T04:27:14.399Z,10.65
2024-04-11T04:28:54.199Z,10.64
2024-04-11T04:30:34.052Z,10.64
2024-04-11T04:32:13.885Z,10.64
2024-04-11T04:33:53.448Z,10.67
2024-04-11T04:35:33.355Z,10.66
2024-04-11T04:37:13.139Z,10.63
2024-04-11T04:38:52.768Z,10.66
2024-04-11T04:40:32.609Z,10.65
2024-04-11T04:42:12.542Z,10.64
2024-04-11T04:43:52.234Z,10.64
2024-04-11T04:45:32.010Z,10.64
2024-04-11T04:47:11.742Z,10.63
2024-04-11T04:48:51.398Z,10.64
2024-04-11T04:50:31.134Z,10.62
2024-04-11T04:52:11.179Z,10.65
2024-04-11T04:53:50.752Z,10.64
2024-04-11T04:55:30.477Z,10.62
2024-04-11T04:57:10.358Z,10.62
2024-04-11T04:58:50.003Z,10.61
2024-04-11T05:00:29.791Z,10.64
2024-04-11T05:02:09.766Z,10.63
2024-04-11T05:03:49.302Z,10.61
2024-04-11T05:05:29.081Z,10.61
2024-04-11T05:07:08.868Z,10.62
2024-04-11T05:08:48.630Z,10.61
2024-04-11T05:10:28.395Z,10.62
2024-04-11T05:12:08.188Z,10.64
2024-04-11T05:13:47.937Z,10.61
2024-04-11T05:15:27.713Z,10.62
2024-04-11T05:17:07.609Z,10.6
2024-04-11T05:18:47.264Z,10.61
2024-04-11T05:20:27.025Z,10.61
2024-04-11T05:22:06.785Z,10.61
2024-04-11T05:23:46.576Z,10.61
2024-04-11T05:25:26.371Z,10.64
2024-04-11T05:27:06.112Z,10.62
2024-04-11T05:28:45.884Z,10.61
2024-04-11T05:30:25.636Z,10.61
2024-04-11T05:32:05.412Z,10.63
2024-04-11T05:33:45.181Z,10.63
2024-04-11T05:35:24.936Z,10.63
2024-04-11T05:37:04.719Z,10.62
2024-04-11T05:38:44.498Z,10.63
2024-04-11T05:40:24.273Z,10.63
2024-04-11T05:42:04.107Z,10.66
2024-04-11T05:43:43.803Z,10.63
2024-04-11T05:45:23.569Z,10.66
2024-04-11T05:47:03.342Z,10.66
2024-04-11T05:48:43.225Z,10.68
2024-04-11T05:50:22.914Z,10.69
2024-04-11T05:52:02.759Z,10.67
2024-04-11T05:53:42.694Z,10.7
2024-04-11T05:55:22.197Z,10.71
2024-04-11T05:57:02.095Z,10.73
2024-04-11T05:58:41.937Z,10.74
2024-04-11T06:00:21.536Z,10.8
2024-04-11T06:02:01.477Z,10.85
2024-04-11T06:03:41.364Z,10.89
2024-04-11T06:05:20.814Z,10.93
2024-04-11T06:07:00.783Z,10.95
2024-04-11T06:08:40.589Z,10.96
2024-04-11T06:11:59.910Z,11
2024-04-11T06:13:40.118Z,10.99
2024-04-11T06:15:19.424Z,11.03
2024-04-11T06:16:59.539Z,11.06
2024-04-11T06:18:39.276Z,11.07
2024-04-11T06:20:18.748Z,11.1
2024-04-11T06:21:58.742Z,11.11
2024-04-11T06:23:38.553Z,11.14
2024-04-11T06:25:18.207Z,11.18
2024-04-11T06:26:58.186Z,11.21
2024-04-11T06:28:37.723Z,11.21
2024-04-11T06:30:17.390Z,11.27
2024-04-11T06:31:57.334Z,11.29
2024-04-11T06:33:37.164Z,11.32
2024-04-11T06:35:17.035Z,11.38
2024-04-11T06:36:56.856Z,11.43
2024-04-11T06:38:36.458Z,11.46
2024-04-11T06:40:16.003Z,11.53
2024-04-11T06:41:55.938Z,11.56
2024-04-11T06:43:35.875Z,11.6
2024-04-11T06:45:15.466Z,11.67
2024-04-11T06:46:55.132Z,11.72
2024-04-11T06:48:34.859Z,11.75
2024-04-11T06:50:14.721Z,11.81
2024-04-11T06:51:54.533Z,11.86
2024-04-11T06:53:34.171Z,11.91
2024-04-11T06:55:14.139Z,11.97
2024-04-11T06:56:53.697Z,12
2024-04-11T06:58:33.873Z,12.08
2024-04-11T07:00:13.244Z,12.11
2024-04-11T07:01:53.180Z,12.17
2024-04-11T07:03:32.843Z,12.24
2024-04-11T07:05:12.845Z,12.29
2024-04-11T07:06:52.539Z,12.35
2024-04-11T07:08:32.289Z,12.41
2024-04-11T07:10:11.860Z,12.45
2024-04-11T07:11:51.641Z,12.49
2024-04-11T07:13:31.558Z,12.54
2024-04-11T07:15:11.154Z,12.6
2024-04-11T07:16:50.942Z,12.66
2024-04-11T07:18:30.832Z,12.73
2024-04-11T07:20:10.774Z,12.76
2024-04-11T07:21:50.578Z,12.82
2024-04-11T07:23:30.029Z,12.85
2024-04-11T07:25:09.786Z,12.94
2024-04-11T07:26:49.569Z,12.98
2024-04-11T07:28:29.339Z,13.03
2024-04-11T07:30:09.115Z,13.05
2024-04-11T07:31:49.155Z,13.13
2024-04-11T07:33:28.871Z,13.17
2024-04-11T07:35:08.410Z,13.26
2024-04-11T07:36:48.453Z,13.29
2024-04-11T07:38:28.049Z,13.33
2024-04-11T07:40:07.737Z,13.41
2024-04-11T07:41:47.500Z,13.43
2024-04-11T07:43:27.260Z,13.47
2024-04-11T07:45:07.042Z,13.53
2024-04-11T07:46:46.851Z,13.6
2024-04-11T07:48:26.824Z,13.65
2024-04-11T07:50:06.424Z,13.7
2024-04-11T07:51:46.130Z,13.72
2024-04-11T07:53:25.896Z,13.78
2024-04-11T07:55:05.673Z,13.84
2024-04-11T07:56:45.447Z,13.87
2024-04-11T07:58:25.219Z,13.92
2024-04-11T08:00:04.981Z,13.97
2024-04-11T08:01:44.774Z,14.01
2024-04-11T08:03:24.519Z,14.08
2024-04-11T08:05:04.302Z,14.13
2024-04-11T08:06:44.061Z,14.15
2024-04-11T08:08:23.830Z,14.2
2024-04-11T08:10:03.610Z,14.25
2024-04-11T08:11:43.373Z,14.28
2024-04-11T08:13:23.149Z,14.35
2024-04-11T08:15:02.906Z,14.38
2024-04-11T08:16:42.675Z,14.43
2024-04-11T08:18:22.433Z,14.47
2024-04-11T08:20:02.252Z,14.53
2024-04-11T08:21:41.984Z,14.57
2024-04-11T08:23:21.750Z,14.63
2024-04-11T08:25:01.541Z,14.65
2024-04-11T08:26:41.322Z,14.72
2024-04-11T08:28:21.074Z,14.75
2024-04-11T08:30:00.838Z,14.83
2024-04-11T08:31:40.679Z,14.84
2024-04-11T08:33:20.393Z,14.89
2024-04-11T08:35:00.280Z,14.92
2024-04-11T08:36:40.003Z,14.98
2024-04-11T08:38:19.696Z,15.03
2024-04-11T08:39:59.461Z,15.06
2024-04-11T08:41:39.229Z,15.13
2024-04-11T08:43:18.997Z,15.17
2024-04-11T08:44:58.784Z,15.24
2024-04-11T08:46:38.553Z,15.28
2024-04-11T08:48:18.314Z,15.31
2024-04-11T08:49:58.097Z,15.37
2024-04-11T08:51:37.877Z,15.41
2024-04-11T08:53:17.618Z,15.48
2024-04-11T08:54:57.460Z,15.54
2024-04-11T08:56:37.168Z,15.54
2024-04-11T08:58:16.932Z,15.61
2024-04-11T08:59:56.916Z,15.65
2024-04-11T09:01:36.463Z,15.68
2024-04-11T09:03:16.240Z,15.71
2024-04-11T09:04:56.014Z,15.71
2024-04-11T09:06:35.855Z,15.73
2024-04-11T09:08:15.571Z,15.73
2024-04-11T09:09:55.331Z,15.75
2024-04-11T09:11:35.088Z,15.82
2024-04-11T09:13:14.889Z,15.9
2024-04-11T09:14:54.637Z,15.98
2024-04-11T09:16:34.502Z,16.07
2024-04-11T09:18:14.171Z,16.16
2024-04-11T09:19:54.002Z,16.23
2024-04-11T09:21:33.780Z,16.31
2024-04-11T09:23:13.534Z,16.37
2024-04-11T09:24:53.260Z,16.43
2024-04-11T09:26:33.026Z,16.49
2024-04-11T09:28:12.807Z,16.54
2024-04-11T09:29:52.573Z,16.62
2024-04-11T09:31:32.322Z,16.67
2024-04-11T09:33:12.100Z,16.73
2024-04-11T09:34:51.868Z,16.79
2024-04-11T09:36:31.689Z,16.84
2024-04-11T09:38:11.432Z,16.89
2024-04-11T09:39:51.211Z,16.94
2024-04-11T09:41:30.966Z,16.99
2024-04-11T09:43:10.728Z,17.04
2024-04-11T09:44:50.506Z,17.11
2024-04-11T09:46:30.276Z,17.15
2024-04-11T09:48:10.043Z,17.24
2024-04-11T09:49:49.820Z,17.26
2024-04-11T09:51:29.583Z,17.32
2024-04-11T09:53:09.348Z,17.37
2024-04-11T09:54:49.110Z,17.41
2024-04-11T09:56:28.893Z,17.46
2024-04-11T09:58:08.679Z,17.52
2024-04-11T09:59:48.436Z,17.57
2024-04-11T10:01:28.216Z,17.61
2024-04-11T10:03:07.986Z,17.65
2024-04-11T10:04:47.745Z,17.71
2024-04-11T10:06:27.537Z,17.77
2024-04-11T10:08:07.292Z,17.83
2024-04-11T10:09:47.076Z,17.87
2024-04-11T10:11:26.834Z,17.9
2024-04-11T10:13:06.604Z,17.96
2024-04-11T10:14:46.370Z,18.02
2024-04-11T10:16:26.149Z,18.04
2024-04-11T10:18:06.064Z,18.11
2024-04-11T10:19:45.702Z,18.15
2024-04-11T10:21:25.471Z,18.19
2024-04-11T10:23:05.226Z,18.23
2024-04-11T10:24:45.033Z,18.28
2024-04-11T10:26:24.818Z,18.33
2024-04-11T10:28:04.570Z,18.37
2024-04-11T10:29:44.308Z,18.39
2024-04-11T10:31:24.123Z,18.44
2024-04-11T10:33:03.870Z,18.46
2024-04-11T10:34:43.606Z,18.51
2024-04-11T10:36:23.390Z,18.56
2024-04-11T10:38:03.168Z,18.59
2024-04-11T10:39:42.939Z,18.62
2024-04-11T10:41:22.786Z,18.68
2024-04-11T10:43:02.460Z,18.69
2024-04-11T10:44:42.445Z,18.71
2024-04-11T10:46:22.447Z,18.76
2024-04-11T10:48:01.849Z,18.77
2024-04-11T10:49:41.611Z,18.81
2024-04-11T10:51:21.538Z,18.83
2024-04-11T10:53:01.306Z,18.87
2024-04-11T10:54:40.889Z,18.89
2024-04-11T10:56:20.861Z,18.9
2024-04-11T10:58:00.539Z,18.95
2024-04-11T10:59:40.181Z,18.96
2024-04-11T11:01:20.013Z,18.98
2024-04-11T11:02:59.751Z,18.99
2024-04-11T11:04:39.479Z,19.01
2024-04-11T11:06:19.244Z,19.04
2024-04-11T11:07:59.020Z,19.07
2024-04-11T11:11:18.578Z,19.11
2024-04-11T11:12:58.372Z,19.12
2024-04-11T11:14:38.125Z,19.12
2024-04-11T11:16:17.889Z,19.16
2024-04-11T11:17:57.677Z,19.17
2024-04-11T11:19:37.415Z,19.2
2024-04-11T11:21:17.251Z,19.2
2024-04-11T11:22:56.966Z,19.2
2024-04-11T11:24:36.732Z,19.24
2024-04-11T11:27:56.268Z,19.24
2024-04-11T11:29:36.053Z,19.28
2024-04-11T11:31:15.823Z,19.29
2024-04-11T11:32:55.621Z,19.31
2024-04-11T11:34:35.356Z,19.32
2024-04-11T11:36:15.132Z,19.33
2024-04-11T11:37:54.960Z,19.32
2024-04-11T11:39:34.737Z,19.35
2024-04-11T11:41:14.460Z,19.36
2024-04-11T11:42:54.206Z,19.39
2024-04-11T11:44:33.985Z,19.4
2024-04-11T11:46:13.749Z,19.43
2024-04-11T11:47:53.526Z,19.43
2024-04-11T11:49:33.363Z,19.45
2024-04-11T11:51:13.095Z,19.48
2024-04-11T11:52:52.822Z,19.48
2024-04-11T11:54:32.601Z,19.5
2024-04-11T11:56:12.425Z,19.53
2024-04-11T11:57:52.146Z,19.52
2024-04-11T11:59:31.910Z,19.53
2024-04-11T12:01:11.694Z,19.54
2024-04-11T12:02:51.461Z,19.57
2024-04-11T12:04:31.237Z,19.58
2024-04-11T12:06:11.016Z,19.6
2024-04-11T12:07:50.763Z,19.64
2024-04-11T12:09:30.525Z,19.65
2024-04-11T12:11:10.314Z,19.65
2024-04-11T12:12:50.071Z,19.64
2024-04-11T12:14:29.837Z,19.69
2024-04-11T12:16:09.624Z,19.69
2024-04-11T12:17:49.376Z,19.68
2024-04-11T12:19:29.158Z,19.68
2024-04-11T12:21:08.933Z,19.73
2024-04-11T12:22:48.726Z,19.7
2024-04-11T12:24:28.641Z,19.74
2024-04-11T12:26:08.241Z,19.74
2024-04-11T12:27:48.012Z,19.73
2024-04-11T12:29:27.778Z,19.75
2024-04-11T12:31:07.560Z,19.76
2024-04-11T12:32:47.319Z,19.78
2024-04-11T12:34:27.081Z,19.79
2024-04-11T12:36:06.847Z,19.79
2024-04-11T12:37:46.639Z,19.82
2024-04-11T12:39:26.411Z,19.82
2024-04-11T12:41:06.172Z,19.85
2024-04-11T12:42:45.964Z,19.86
2024-04-11T12:44:25.870Z,19.87
2024-04-11T12:46:05.476Z,19.86
2024-04-11T12:47:45.275Z,19.89
2024-04-11T12:49:25.033Z,19.92
2024-04-11T12:51:04.794Z,19.92
2024-04-11T12:52:44.584Z,19.91
2024-04-11T12:54:24.368Z,19.93
2024-04-11T12:56:04.098Z,19.95
2024-04-11T12:57:43.897Z,19.95
2024-04-11T12:59:23.638Z,19.94
2024-04-11T13:01:03.415Z,19.96
2024-04-11T13:02:43.250Z,19.96
2024-04-11T13:04:22.957Z,19.96
2024-04-11T13:06:02.727Z,20
2024-04-11T13:07:42.491Z,19.99
2024-04-11T13:09:22.340Z,20.02
2024-04-11T13:11:02.070Z,20.02
2024-04-11T13:12:41.819Z,20.03
2024-04-11T13:14:21.591Z,20.04
2024-04-11T13:16:01.439Z,20.07
2024-04-11T13:17:41.134Z,20.06
2024-04-11T13:19:20.908Z,20.08
2024-04-11T13:21:00.666Z,20.09
2024-04-11T13:22:40.443Z,20.09
2024-04-11T13:24:20.209Z,20.1
2024-04-11T13:26:00.176Z,20.12
2024-04-11T13:27:39.770Z,20.15
2024-04-11T13:29:19.565Z,20.14
2024-04-11T13:30:59.357Z,20.12
2024-04-11T13:32:39.106Z,20.16
2024-04-11T13:34:18.876Z,20.14
2024-04-11T13:35:58.662Z,20.17
2024-04-11T13:37:38.389Z,20.19
2024-04-11T13:39:18.136Z,20.19
2024-04-11T13:40:58.125Z,20.2
2024-04-11T13:42:37.723Z,20.2
2024-04-11T13:44:17.477Z,20.21
2024-04-11T13:45:57.375Z,20.23
2024-04-11T13:47:37.113Z,20.24
2024-04-11T13:49:16.759Z,20.27
2024-04-11T13:50:56.529Z,20.28
2024-04-11T13:52:36.295Z,20.26
2024-04-11T13:54:16.091Z,20.31
2024-04-11T13:55:56.150Z,20.27
2024-04-11T13:57:35.623Z,20.27
2024-04-11T13:59:15.547Z,20.31
2024-04-11T14:00:55.214Z,20.29
2024-04-11T14:02:34.942Z,20.31
2024-04-11T14:04:14.849Z,20.29
2024-04-11T14:05:54.464Z,20.29
2024-04-11T14:07:34.291Z,20.33
2024-04-11T14:09:14.076Z,20.32
2024-04-11T14:10:53.877Z,20.34
2024-04-11T14:12:33.620Z,20.33
2024-04-11T14:14:13.330Z,20.32
2024-04-11T14:15:53.082Z,20.35
2024-04-11T14:17:32.898Z,20.36
2024-04-11T14:19:12.728Z,20.34
2024-04-11T14:20:52.545Z,20.34
2024-04-11T14:22:32.202Z,20.35
2024-04-11T14:24:12.174Z,20.36
2024-04-11T14:25:52.002Z,20.36
2024-04-11T14:27:31.478Z,20.35
2024-04-11T14:29:11.403Z,20.37
2024-04-11T14:30:51.022Z,20.39
2024-04-11T14:32:30.785Z,20.39
2024-04-11T14:34:10.618Z,20.39
2024-04-11T14:35:50.447Z,20.4
2024-04-11T14:37:30.125Z,20.41
2024-04-11T14:40:49.652Z,20.4
2024-04-11T14:42:29.431Z,20.44
2024-04-11T14:44:09.199Z,20.42
2024-04-11T14:45:49.078Z,20.44
2024-04-11T14:47:28.823Z,20.45
2024-04-11T14:49:08.565Z,20.45
2024-04-11T14:50:48.416Z,20.43
2024-04-11T14:52:28.034Z,20.46
2024-04-11T14:54:08.036Z,20.46
2024-04-11T14:55:47.732Z,20.46
2024-04-11T14:57:27.332Z,20.46
2024-04-11T14:59:07.217Z,20.52
2024-04-11T15:00:46.947Z,20.46
2024-04-11T15:02:26.792Z,20.51
2024-04-11T15:04:06.538Z,20.51
2024-04-11T15:05:46.239Z,20.51
2024-04-11T15:07:26.011Z,20.54
2024-04-11T15:09:05.753Z,20.53
2024-04-11T15:10:45.621Z,20.53
2024-04-11T15:12:25.515Z,20.53
2024-04-11T15:14:05.122Z,20.56
2024-04-11T15:15:44.911Z,20.56
2024-04-11T15:17:24.848Z,20.54
2024-04-11T15:20:44.125Z,20.55
2024-04-11T15:22:23.922Z,20.56
2024-04-11T15:24:03.879Z,20.57
2024-04-11T15:25:43.752Z,20.56
2024-04-11T15:27:23.336Z,20.55
2024-04-11T15:30:43.026Z,20.58
2024-04-11T15:32:22.836Z,20.56
2024-04-11T15:34:02.474Z,20.55
2024-04-11T15:35:42.124Z,20.55
2024-04-11T15:37:22.064Z,20.58
2024-04-11T15:39:01.915Z,20.56
2024-04-11T15:40:41.527Z,20.56
2024-04-11T15:42:21.153Z,20.6
2024-04-11T15:44:01.031Z,20.58
2024-04-11T15:45:40.753Z,20.59
2024-04-11T15:47:20.443Z,20.61
2024-04-11T15:49:00.235Z,20.58
2024-04-11T15:50:40.039Z,20.57
2024-04-11T15:52:19.776Z,20.59
2024-04-11T15:53:59.590Z,20.56
2024-04-11T15:55:39.307Z,20.59
2024-04-11T15:57:19.087Z,20.58
2024-04-11T15:58:58.942Z,20.57
2024-04-11T16:00:38.850Z,20.58
2024-04-11T16:02:18.435Z,20.59
2024-04-11T16:03:58.275Z,20.55
2024-04-11T16:05:38.290Z,20.56
2024-04-11T16:07:18.064Z,20.57
2024-04-11T16:08:57.753Z,20.56
2024-04-11T16:10:37.590Z,20.57
2024-04-11T16:12:17.243Z,20.56
2024-04-11T16:13:57.036Z,20.56
2024-04-11T16:15:36.653Z,20.56
2024-04-11T16:17:16.623Z,20.53
2024-04-11T16:18:56.439Z,20.56
2024-04-11T16:20:36.061Z,20.55
2024-04-11T16:23:55.445Z,20.56
2024-04-11T16:25:35.420Z,20.56
2024-04-11T16:27:15.171Z,20.56
2024-04-11T16:28:55.009Z,20.57
2024-04-11T16:30:34.719Z,20.55
2024-04-11T16:32:14.583Z,20.56
2024-04-11T16:33:54.406Z,20.58
2024-04-11T16:35:34.051Z,20.55
2024-04-11T16:37:13.944Z,20.55
2024-04-11T16:38:53.664Z,20.55
2024-04-11T16:40:33.272Z,20.57
2024-04-11T16:42:12.881Z,20.56
2024-04-11T16:43:52.888Z,20.58
2024-04-11T16:45:32.421Z,20.58
2024-04-11T16:47:12.432Z,20.59
2024-04-11T16:48:52.010Z,20.61
2024-04-11T16:50:31.869Z,20.63
2024-04-11T16:52:11.500Z,20.64
2024-04-11T16:53:51.275Z,20.66
2024-04-11T16:55:31.060Z,20.67
2024-04-11T16:57:10.817Z,20.68
2024-04-11T16:58:50.603Z,20.73
2024-04-11T17:00:30.356Z,20.7
2024-04-11T17:02:10.138Z,20.73
2024-04-11T17:03:49.905Z,20.75
2024-04-11T17:05:29.666Z,20.78
2024-04-11T17:07:09.437Z,20.77
2024-04-11T17:08:49.204Z,20.77
2024-04-11T17:10:28.987Z,20.78
2024-04-11T17:12:08.759Z,20.78
2024-04-11T17:13:48.516Z,20.79
2024-04-11T17:15:28.298Z,20.78
2024-04-11T17:17:08.072Z,20.8
2024-04-11T17:18:47.830Z,20.82
2024-04-11T17:20:27.612Z,20.83
2024-04-11T17:22:07.387Z,20.82
2024-04-11T17:23:47.135Z,20.79
2024-04-11T17:25:26.931Z,20.79
2024-04-11T17:27:06.693Z,20.82
2024-04-11T17:28:46.453Z,20.79
2024-04-11T17:30:26.229Z,20.77
2024-04-11T17:32:06.012Z,20.79
2024-04-11T17:33:45.780Z,20.77
2024-04-11T17:35:25.554Z,20.74
2024-04-11T17:37:05.305Z,20.7
2024-04-11T17:38:45.067Z,20.7
2024-04-11T17:40:24.859Z,20.65
2024-04-11T17:42:04.634Z,20.63
2024-04-11T17:43:44.390Z,20.64
2024-04-11T17:45:24.156Z,20.58
2024-04-11T17:47:03.923Z,20.56
2024-04-11T17:48:43.669Z,20.52
2024-04-11T17:50:23.457Z,20.49
2024-04-11T17:52:03.216Z,20.46
2024-04-11T17:53:42.975Z,20.43
2024-04-11T17:55:22.764Z,20.42
2024-04-11T17:57:02.530Z,20.4
2024-04-11T17:58:42.286Z,20.41
2024-04-11T18:00:22.069Z,20.36
2024-04-11T18:02:01.823Z,20.34
2024-04-11T18:03:41.589Z,20.31
2024-04-11T18:05:21.358Z,20.28
2024-04-11T18:07:01.148Z,20.24
2024-04-11T18:08:40.897Z,20.21
2024-04-11T18:10:20.675Z,20.2
2024-04-11T18:12:00.437Z,20.2
2024-04-11T18:13:40.203Z,20.15
2024-04-11T18:15:19.981Z,20.12
2024-04-11T18:16:59.759Z,20.11
2024-04-11T18:18:39.509Z,20.09
2024-04-11T18:20:19.267Z,20.07
2024-04-11T18:21:59.054Z,20.03
2024-04-11T18:23:38.793Z,19.99
2024-04-11T18:25:18.585Z,19.96
2024-04-11T18:26:58.335Z,19.92
2024-04-11T18:28:38.116Z,19.87
2024-04-11T18:30:17.872Z,19.85
2024-04-11T18:31:57.655Z,19.79
2024-04-11T18:33:37.420Z,19.76
2024-04-11T18:35:17.181Z,19.71
2024-04-11T18:36:56.975Z,19.68
2024-04-11T18:38:36.716Z,19.64
2024-04-11T18:40:16.485Z,19.61
2024-04-11T18:41:56.251Z,19.56
2024-04-11T18:43:36.025Z,19.53
2024-04-11T18:45:15.783Z,19.48
2024-04-11T18:46:55.579Z,19.44
2024-04-11T18:48:35.325Z,19.41
2024-04-11T18:50:15.096Z,19.36
2024-04-11T18:51:54.859Z,19.34
2024-04-11T18:53:34.630Z,19.29
2024-04-11T18:55:14.375Z,19.25
2024-04-11T18:56:54.162Z,19.2
2024-04-11T19:00:13.692Z,19.14
2024-04-11T19:01:53.458Z,19.1
2024-04-11T19:03:33.237Z,19.04
2024-04-11T19:05:12.992Z,19.02
2024-04-11T19:06:52.760Z,18.99
2024-04-11T19:08:32.562Z,18.95
2024-04-11T19:10:12.325Z,18.92
2024-04-11T19:11:52.076Z,18.87
2024-04-11T19:13:31.822Z,18.85
2024-04-11T19:16:51.385Z,18.78
2024-04-11T19:18:31.145Z,18.76
2024-04-11T19:20:10.904Z,18.71
2024-04-11T19:21:50.678Z,18.68
2024-04-11T19:23:30.446Z,18.67
2024-04-11T19:26:49.969Z,18.59
2024-04-11T19:28:29.741Z,18.57
2024-04-11T19:30:09.517Z,18.52
2024-04-11T19:31:49.313Z,18.49
2024-04-11T19:33:29.070Z,18.45
2024-04-11T19:35:08.821Z,18.43
2024-04-11T19:36:48.588Z,18.39
2024-04-11T19:40:08.121Z,18.35
2024-04-11T19:41:47.874Z,18.29
2024-04-11T19:43:27.646Z,18.28
2024-04-11T19:45:07.420Z,18.26
2024-04-11T19:46:47.188Z,18.2
2024-04-11T19:48:26.946Z,18.2
2024-04-11T19:50:06.717Z,18.16
2024-04-11T19:51:46.494Z,18.14
2024-04-11T19:53:26.252Z,18.12
2024-04-11T19:55:06.021Z,18.07
2024-04-11T19:56:45.778Z,18.06
2024-04-11T19:58:25.567Z,18.01
2024-04-11T20:00:05.312Z,17.99
2024-04-11T20:01:45.097Z,17.98
2024-04-11T20:03:24.861Z,17.94
2024-04-11T20:05:04.609Z,17.91
2024-04-11T20:06:44.380Z,17.87
2024-04-11T20:08:24.177Z,17.85
2024-04-11T20:10:03.942Z,17.84
2024-04-11T20:11:43.694Z,17.79
2024-04-11T20:13:23.469Z,17.79
2024-04-11T20:15:03.219Z,17.77
2024-04-11T20:16:42.998Z,17.71
2024-04-11T20:18:22.774Z,17.71
2024-04-11T20:20:02.543Z,17.68
2024-04-11T20:21:42.307Z,17.67
2024-04-11T20:23:22.076Z,17.62
2024-04-11T20:25:01.829Z,17.61
2024-04-11T20:26:41.594Z,17.6
2024-04-11T20:30:01.146Z,17.54
2024-04-11T20:31:40.914Z,17.53
2024-04-11T20:33:20.670Z,17.52
2024-04-11T20:35:00.439Z,17.49
2024-04-11T20:36:40.215Z,17.46
2024-04-11T20:38:20.004Z,17.44
2024-04-11T20:39:59.729Z,17.43
2024-04-11T20:41:39.511Z,17.41
2024-04-11T20:43:19.280Z,17.4
2024-04-11T20:44:59.053Z,17.39
2024-04-11T20:46:38.810Z,17.37
2024-04-11T20:49:58.347Z,17.34
2024-04-11T20:51:38.111Z,17.33
2024-04-11T20:53:17.878Z,17.29
2024-04-11T20:54:57.652Z,17.29
2024-04-11T20:56:37.428Z,17.28
2024-04-11T20:58:17.188Z,17.26
2024-04-11T20:59:56.949Z,17.25
2024-04-11T21:01:36.722Z,17.21
2024-04-11T21:03:16.487Z,17.21
2024-04-11T21:04:56.270Z,17.2
2024-04-11T21:06:36.033Z,17.18
2024-04-11T21:08:15.780Z,17.17
2024-04-11T21:09:55.570Z,17.16
2024-04-11T21:11:35.321Z,17.15
2024-04-11T21:13:15.094Z,17.14
2024-04-11T21:14:54.871Z,17.12
2024-04-11T21:16:34.632Z,17.11
2024-04-11T21:19:54.169Z,17.09
2024-04-11T21:21:33.933Z,17.09
2024-04-11T21:23:13.713Z,17.07
2024-04-11T21:24:53.471Z,17.07
2024-04-11T21:26:33.225Z,17.06
2024-04-11T21:28:13.000Z,17.03
2024-04-11T21:29:52.763Z,17.04
2024-04-11T21:31:32.541Z,17.02
2024-04-11T21:33:12.304Z,17.02
2024-04-11T21:34:52.081Z,17
2024-04-11T21:36:31.848Z,16.98
2024-04-11T21:39:51.376Z,16.98
2024-04-11T21:41:31.135Z,16.95
2024-04-11T21:43:10.902Z,16.96
2024-04-11T21:44:50.675Z,16.95
2024-04-11T21:46:30.452Z,16.95
2024-04-11T21:48:10.214Z,16.93
2024-04-11T21:49:49.985Z,16.93
2024-04-11T21:51:29.736Z,16.93
2024-04-11T21:53:09.510Z,16.93
2024-04-11T21:54:49.276Z,16.92
2024-04-11T21:56:29.053Z,16.91
2024-04-11T21:58:08.815Z,16.9
2024-04-11T21:59:48.592Z,16.9
2024-04-11T22:01:28.354Z,16.89
2024-04-11T22:03:08.132Z,16.87
2024-04-11T22:04:47.878Z,16.87
2024-04-11T22:06:27.658Z,16.86
2024-04-11T22:08:07.430Z,16.87
2024-04-11T22:09:47.185Z,16.85
2024-04-11T22:11:26.973Z,16.85